createdAt,value
2017-10-23T00:01:32.975Z,7.50
2017-10-23T00:03:59.278Z,7.40
2017-10-23T00:06:25.564Z,7.50
2017-10-23T00:08:51.894Z,7.40
2017-10-23T00:11:18.159Z,7.50
2017-10-23T00:13:44.447Z,7.50
2017-10-23T00:16:10.730Z,7.50
2017-10-23T00:18:37.021Z,7.50
2017-10-23T00:21:03.351Z,7.50
2017-10-23T00:23:29.678Z,7.50
2017-10-23T00:25:55.996Z,7.50
2017-10-23T00:28:22.298Z,7.50
2017-10-23T00:30:49.325Z,7.50
2017-10-23T00:33:16.375Z,7.50
2017-10-23T00:35:42.649Z,7.50
2017-10-23T00:38:09.732Z,7.50
2017-10-23T00:40:36.025Z,7.50
2017-10-23T00:43:02.334Z,7.50
2017-10-23T00:45:28.825Z,7.50
2017-10-23T00:47:55.131Z,7.50
2017-10-23T00:50:21.427Z,7.50
2017-10-23T00:52:47.764Z,7.50
2017-10-23T00:55:14.187Z,7.50
2017-10-23T00:57:40.519Z,7.50
2017-10-23T01:00:06.803Z,7.50
2017-10-23T01:02:33.121Z,7.50
2017-10-23T01:04:59.428Z,7.50
2017-10-23T01:07:25.755Z,7.60
2017-10-23T01:09:52.062Z,7.60
2017-10-23T01:12:18.378Z,7.60
2017-10-23T01:14:44.678Z,7.60
2017-10-23T01:17:10.964Z,7.60
2017-10-23T01:19:37.982Z,7.60
2017-10-23T01:22:04.293Z,7.50
2017-10-23T01:24:34.186Z,7.60
2017-10-23T01:27:00.497Z,7.60
2017-10-23T01:29:26.832Z,7.60
2017-10-23T01:31:53.176Z,7.60
2017-10-23T01:34:19.498Z,7.60
2017-10-23T01:36:45.825Z,7.60
2017-10-23T01:39:12.161Z,7.60
2017-10-23T01:41:38.832Z,7.60
2017-10-23T01:44:05.160Z,7.60
2017-10-23T01:46:31.484Z,7.60
2017-10-23T01:48:57.862Z,7.50
2017-10-23T01:51:24.137Z,7.60
2017-10-23T01:53:51.216Z,7.60
2017-10-23T01:56:17.519Z,7.50
2017-10-23T01:58:44.175Z,7.60
2017-10-23T02:01:10.467Z,7.50
2017-10-23T02:03:37.519Z,7.50
2017-10-23T02:06:04.557Z,7.50
2017-10-23T02:08:31.560Z,7.50
2017-10-23T02:10:57.885Z,7.50
2017-10-23T02:13:24.216Z,7.60
2017-10-23T02:15:50.566Z,7.60
2017-10-23T02:18:16.877Z,7.60
2017-10-23T02:20:43.471Z,7.60
2017-10-23T02:23:09.791Z,7.60
2017-10-23T02:25:36.853Z,7.60
2017-10-23T02:28:03.150Z,7.60
2017-10-23T02:30:30.207Z,7.60
2017-10-23T02:32:57.244Z,7.60
2017-10-23T02:35:24.287Z,7.60
2017-10-23T02:37:51.326Z,7.60
2017-10-23T02:40:17.621Z,7.50
2017-10-23T02:42:43.941Z,7.60
2017-10-23T02:45:10.243Z,7.60
2017-10-23T02:47:36.556Z,7.60
2017-10-23T02:50:03.639Z,7.60
2017-10-23T02:52:29.901Z,7.60
2017-10-23T02:54:56.352Z,7.60
2017-10-23T02:57:23.395Z,7.60
2017-10-23T02:59:50.776Z,7.60
2017-10-23T03:02:17.110Z,7.50
2017-10-23T03:04:43.421Z,7.60
2017-10-23T03:07:10.494Z,7.60
2017-10-23T03:09:36.816Z,7.60
2017-10-23T03:12:03.160Z,7.60
2017-10-23T03:14:29.478Z,7.60
2017-10-23T03:16:55.797Z,7.60
2017-10-23T03:19:22.136Z,7.60
2017-10-23T03:21:48.756Z,7.60
2017-10-23T03:24:15.090Z,7.60
2017-10-23T03:26:41.429Z,7.60
2017-10-23T03:29:07.794Z,7.60
2017-10-23T03:31:34.157Z,7.60
2017-10-23T03:34:01.206Z,7.60
2017-10-23T03:36:28.277Z,7.60
2017-10-23T03:38:54.601Z,7.60
2017-10-23T03:41:20.966Z,7.60
2017-10-23T03:43:47.312Z,7.60
2017-10-23T03:46:13.690Z,7.60
2017-10-23T03:48:40.012Z,7.60
2017-10-23T03:51:06.389Z,7.60
2017-10-23T03:53:32.789Z,7.60
2017-10-23T03:55:59.130Z,7.60
2017-10-23T03:58:25.452Z,7.60
2017-10-23T04:00:51.795Z,7.60
2017-10-23T04:03:18.120Z,7.60
2017-10-23T04:05:44.460Z,7.60
2017-10-23T04:08:10.769Z,7.60
2017-10-23T04:10:37.117Z,7.60
2017-10-23T04:13:03.483Z,7.60
2017-10-23T04:15:30.547Z,7.50
2017-10-23T04:17:56.890Z,7.50
2017-10-23T04:20:23.248Z,7.50
2017-10-23T04:22:49.901Z,7.50
2017-10-23T04:25:16.235Z,7.50
2017-10-23T04:27:42.547Z,7.50
2017-10-23T04:30:08.884Z,7.50
2017-10-23T04:32:35.230Z,7.60
2017-10-23T04:35:01.557Z,7.70
2017-10-23T04:37:27.886Z,7.70
2017-10-23T04:39:54.503Z,7.80
2017-10-23T04:42:20.836Z,7.80
2017-10-23T04:44:47.152Z,7.80
2017-10-23T04:47:13.515Z,7.70
2017-10-23T04:49:39.837Z,7.70
2017-10-23T04:52:06.421Z,7.60
2017-10-23T04:54:32.782Z,7.60
2017-10-23T04:56:59.112Z,7.60
2017-10-23T04:59:25.462Z,7.60
2017-10-23T05:01:51.769Z,7.50
2017-10-23T05:04:18.114Z,7.60
2017-10-23T05:06:44.492Z,7.50
2017-10-23T05:09:10.826Z,7.60
2017-10-23T05:11:37.141Z,7.70
2017-10-23T05:14:03.461Z,7.90
2017-10-23T05:16:29.818Z,8.10
2017-10-23T05:18:56.136Z,8.30
2017-10-23T05:21:22.480Z,8.40
2017-10-23T05:23:48.831Z,8.40
2017-10-23T05:26:15.188Z,8.40
2017-10-23T05:28:42.311Z,8.20
2017-10-23T05:31:08.668Z,8.20
2017-10-23T05:33:35.758Z,8.00
2017-10-23T05:36:02.092Z,8.00
2017-10-23T05:38:28.441Z,8.00
2017-10-23T05:40:54.781Z,7.90
2017-10-23T05:43:21.114Z,7.90
2017-10-23T05:45:47.438Z,7.90
2017-10-23T05:48:13.838Z,7.90
2017-10-23T05:50:40.173Z,7.80
2017-10-23T05:53:06.540Z,7.80
2017-10-23T05:55:33.732Z,7.70
2017-10-23T05:58:00.025Z,7.60
2017-10-23T06:00:27.126Z,7.50
2017-10-23T06:02:53.450Z,7.50
2017-10-23T06:05:19.796Z,7.50
2017-10-23T06:07:46.114Z,7.40
2017-10-23T06:10:12.438Z,7.40
2017-10-23T06:12:38.808Z,7.40
2017-10-23T06:15:05.186Z,7.40
2017-10-23T06:17:32.255Z,7.30
2017-10-23T06:19:58.628Z,7.30
2017-10-23T06:22:25.005Z,7.30
2017-10-23T06:24:51.381Z,7.40
2017-10-23T06:27:18.498Z,7.50
2017-10-23T06:29:44.846Z,7.50
2017-10-23T06:32:11.482Z,7.40
2017-10-23T06:34:37.806Z,7.40
2017-10-23T06:37:04.429Z,7.40
2017-10-23T06:39:30.853Z,7.40
2017-10-23T06:41:57.181Z,7.40
2017-10-23T06:44:23.849Z,7.40
2017-10-23T06:46:50.218Z,7.50
2017-10-23T06:49:16.540Z,7.50
2017-10-23T06:51:42.900Z,7.40
2017-10-23T06:54:34.513Z,7.40
2017-10-23T06:57:01.194Z,7.30
2017-10-23T06:59:27.637Z,7.30
2017-10-23T07:01:54.354Z,7.30
2017-10-23T07:04:21.559Z,7.20
2017-10-23T07:06:47.969Z,7.20
2017-10-23T07:09:15.233Z,7.30
2017-10-23T07:11:41.719Z,7.20
2017-10-23T07:14:08.898Z,7.30
2017-10-23T07:16:35.311Z,7.30
2017-10-23T07:19:02.697Z,7.40
2017-10-23T07:21:29.143Z,7.40
2017-10-23T07:23:55.530Z,7.50
2017-10-23T07:26:22.687Z,7.60
2017-10-23T07:28:49.014Z,7.50
2017-10-23T07:31:15.414Z,7.60
2017-10-23T07:33:42.568Z,7.70
2017-10-23T07:36:08.957Z,7.70
2017-10-23T07:38:35.380Z,7.80
2017-10-23T07:41:01.720Z,7.80
2017-10-23T07:43:28.091Z,7.80
2017-10-23T07:45:54.440Z,7.80
2017-10-23T07:48:21.821Z,7.80
2017-10-23T07:50:48.150Z,7.80
2017-10-23T07:53:14.461Z,7.80
2017-10-23T07:55:40.816Z,7.90
2017-10-23T07:58:07.132Z,7.80
2017-10-23T08:00:33.489Z,7.80
2017-10-23T08:02:59.848Z,7.80
2017-10-23T08:05:26.159Z,7.80
2017-10-23T08:07:52.470Z,7.80
2017-10-23T08:10:19.080Z,7.80
2017-10-23T08:12:45.376Z,7.90
2017-10-23T08:15:12.412Z,7.90
2017-10-23T08:17:38.733Z,7.90
2017-10-23T08:20:05.032Z,7.90
2017-10-23T08:22:31.352Z,7.90
2017-10-23T08:24:57.662Z,8.00
2017-10-23T08:27:24.306Z,8.10
2017-10-23T08:29:50.606Z,8.10
2017-10-23T08:32:17.647Z,8.10
2017-10-23T08:34:44.714Z,8.20
2017-10-23T08:37:11.006Z,8.20
2017-10-23T08:39:37.342Z,8.20
2017-10-23T08:42:03.679Z,8.30
2017-10-23T08:44:30.725Z,8.50
2017-10-23T08:46:57.754Z,8.50
2017-10-23T08:49:24.063Z,8.50
2017-10-23T08:51:50.426Z,8.50
2017-10-23T08:54:17.573Z,8.60
2017-10-23T08:56:44.654Z,8.60
2017-10-23T08:59:10.985Z,8.60
2017-10-23T09:01:37.611Z,8.60
2017-10-23T09:04:03.939Z,8.60
2017-10-23T09:06:30.228Z,8.50
2017-10-23T09:08:56.547Z,8.50
2017-10-23T09:11:22.849Z,8.50
2017-10-23T09:13:49.196Z,8.50
2017-10-23T09:16:15.542Z,8.60
2017-10-23T09:18:42.665Z,8.50
2017-10-23T09:21:08.994Z,8.50
2017-10-23T09:23:35.595Z,8.50
2017-10-23T09:26:01.878Z,8.60
2017-10-23T09:28:28.162Z,8.70
2017-10-23T09:30:54.477Z,8.70
2017-10-23T09:33:20.733Z,8.80
2017-10-23T09:35:47.064Z,8.80
2017-10-23T09:38:13.377Z,8.90
2017-10-23T09:40:39.701Z,8.90
2017-10-23T09:43:05.975Z,9.00
2017-10-23T09:45:32.279Z,9.00
2017-10-23T09:47:58.580Z,9.00
2017-10-23T09:50:24.896Z,9.00
2017-10-23T09:52:51.205Z,9.00
2017-10-23T09:55:18.311Z,9.10
2017-10-23T09:57:44.657Z,9.10
2017-10-23T10:00:10.969Z,9.30
2017-10-23T10:02:37.586Z,9.30
2017-10-23T10:05:03.874Z,9.40
2017-10-23T10:07:30.889Z,9.60
2017-10-23T10:09:57.197Z,9.60
2017-10-23T10:12:23.515Z,9.60
2017-10-23T10:14:49.819Z,9.50
2017-10-23T10:17:16.113Z,9.40
2017-10-23T10:19:42.420Z,9.40
2017-10-23T10:22:08.721Z,9.30
2017-10-23T10:24:35.058Z,9.20
2017-10-23T10:27:01.355Z,9.10
2017-10-23T10:29:28.393Z,9.30
2017-10-23T10:31:55.456Z,9.50
2017-10-23T10:34:21.780Z,9.50
2017-10-23T10:36:48.078Z,9.50
2017-10-23T10:39:14.452Z,9.50
2017-10-23T10:41:40.765Z,9.50
2017-10-23T10:44:07.779Z,9.50
2017-10-23T10:46:34.088Z,9.50
2017-10-23T10:49:00.444Z,9.40
2017-10-23T10:51:27.495Z,9.40
2017-10-23T10:53:54.630Z,9.30
2017-10-23T10:56:20.952Z,9.30
2017-10-23T10:58:47.258Z,9.40
2017-10-23T11:01:13.545Z,9.50
2017-10-23T11:03:39.854Z,9.60
2017-10-23T11:06:06.927Z,9.40
2017-10-23T11:08:33.239Z,9.40
2017-10-23T11:11:00.310Z,9.20
2017-10-23T11:13:26.663Z,9.30
2017-10-23T11:15:52.986Z,9.30
2017-10-23T11:18:19.318Z,9.30
2017-10-23T11:20:45.948Z,9.40
2017-10-23T11:23:12.304Z,9.60
2017-10-23T11:25:38.628Z,9.70
2017-10-23T11:28:04.974Z,9.80
2017-10-23T11:30:31.296Z,9.80
2017-10-23T11:33:01.433Z,9.80
2017-10-23T11:35:28.475Z,9.90
2017-10-23T11:37:55.521Z,10.00
2017-10-23T11:40:22.606Z,10.10
2017-10-23T11:42:49.187Z,10.10
2017-10-23T11:45:15.509Z,10.00
2017-10-23T11:47:41.793Z,9.90
2017-10-23T11:50:08.095Z,9.90
2017-10-23T11:52:35.124Z,9.90
2017-10-23T11:55:01.526Z,9.80
2017-10-23T11:57:27.843Z,9.90
2017-10-23T11:59:54.140Z,9.90
2017-10-23T12:02:20.438Z,10.00
2017-10-23T12:04:46.754Z,10.00
2017-10-23T12:07:13.076Z,10.20
2017-10-23T12:09:39.383Z,10.40
2017-10-23T12:12:05.693Z,10.50
2017-10-23T12:14:32.001Z,10.50
2017-10-23T12:16:59.386Z,10.60
2017-10-23T12:19:25.728Z,10.60
2017-10-23T12:21:55.693Z,10.50
2017-10-23T12:24:23.028Z,10.40
2017-10-23T12:26:49.353Z,10.40
2017-10-23T12:29:15.707Z,10.40
2017-10-23T12:31:42.950Z,10.40
2017-10-23T12:34:10.335Z,10.30
2017-10-23T12:36:36.664Z,10.30
2017-10-23T12:39:03.013Z,10.30
2017-10-23T12:41:29.369Z,10.30
2017-10-23T12:43:55.696Z,10.30
2017-10-23T12:46:22.031Z,10.30
2017-10-23T12:48:48.302Z,10.20
2017-10-23T12:51:14.937Z,10.00
2017-10-23T12:53:41.305Z,10.00
2017-10-23T12:56:07.621Z,9.90
2017-10-23T12:58:33.977Z,9.90
2017-10-23T13:01:00.315Z,9.80
2017-10-23T13:03:26.642Z,9.80
2017-10-23T13:05:52.965Z,9.70
2017-10-23T13:08:25.261Z,9.80
2017-10-23T13:10:52.319Z,9.80
2017-10-23T13:13:18.632Z,9.70
2017-10-23T13:15:45.688Z,9.80
2017-10-23T13:18:12.750Z,9.80
2017-10-23T13:20:39.076Z,9.90
2017-10-23T13:23:05.369Z,9.80
2017-10-23T13:25:31.629Z,9.70
2017-10-23T13:27:57.938Z,9.70
2017-10-23T13:30:25.033Z,9.70
2017-10-23T13:32:51.342Z,9.70
2017-10-23T13:35:17.669Z,9.80
2017-10-23T13:37:43.997Z,9.80
2017-10-23T13:40:10.326Z,9.80
2017-10-23T13:42:36.614Z,9.80
2017-10-23T13:45:02.945Z,9.90
2017-10-23T13:47:29.286Z,9.90
2017-10-23T13:49:55.639Z,9.90
2017-10-23T13:52:21.950Z,9.90
2017-10-23T13:54:49.068Z,9.80
2017-10-23T13:57:15.388Z,9.80
2017-10-23T13:59:41.699Z,9.70
2017-10-23T14:02:07.973Z,9.70
2017-10-23T14:04:35.024Z,9.60
2017-10-23T14:07:02.060Z,9.60
2017-10-23T14:09:28.363Z,9.60
2017-10-23T14:11:54.727Z,9.60
2017-10-23T14:14:21.796Z,9.50
2017-10-23T14:16:48.103Z,9.50
2017-10-23T14:19:14.430Z,9.60
2017-10-23T14:21:41.559Z,9.60
2017-10-23T14:24:07.915Z,9.60
2017-10-23T14:26:34.992Z,9.60
2017-10-23T14:29:01.313Z,9.60
2017-10-23T14:31:27.664Z,9.60
2017-10-23T14:33:53.979Z,9.60
2017-10-23T14:36:20.333Z,9.70
2017-10-23T14:38:46.681Z,9.70
2017-10-23T14:41:13.109Z,9.60
2017-10-23T14:43:39.489Z,9.60
2017-10-23T14:46:05.807Z,9.60
2017-10-23T14:48:32.179Z,9.70
2017-10-23T14:50:58.539Z,9.70
2017-10-23T14:53:25.718Z,9.70
2017-10-23T14:55:52.085Z,9.60
2017-10-23T14:58:18.423Z,9.70
2017-10-23T15:00:45.535Z,9.70
2017-10-23T15:03:11.902Z,9.60
2017-10-23T15:05:38.228Z,9.60
2017-10-23T15:08:04.573Z,9.60
2017-10-23T15:10:30.947Z,9.60
2017-10-23T15:12:57.252Z,9.60
2017-10-23T15:15:24.371Z,9.60
2017-10-23T15:17:50.692Z,9.60
2017-10-23T15:20:17.065Z,9.60
2017-10-23T15:22:44.117Z,9.50
2017-10-23T15:25:10.478Z,9.50
2017-10-23T15:27:36.851Z,9.50
2017-10-23T15:30:03.186Z,9.50
2017-10-23T15:32:30.247Z,9.50
2017-10-23T15:34:56.535Z,9.40
2017-10-23T15:37:22.881Z,9.50
2017-10-23T15:39:49.199Z,9.40
2017-10-23T15:42:15.551Z,9.40
2017-10-23T15:44:42.628Z,9.30
2017-10-23T15:47:08.920Z,9.30
2017-10-23T15:49:36.006Z,9.20
2017-10-23T15:52:02.341Z,9.20
2017-10-23T15:54:28.709Z,9.20
2017-10-23T15:56:55.033Z,9.10
2017-10-23T15:59:21.328Z,9.00
2017-10-23T16:01:47.644Z,9.00
2017-10-23T16:04:13.938Z,8.90
2017-10-23T16:06:40.978Z,8.80
2017-10-23T16:09:07.238Z,8.90
2017-10-23T16:11:33.544Z,8.80
2017-10-23T16:14:01.761Z,8.70
2017-10-23T16:16:28.088Z,8.70
2017-10-23T16:18:54.505Z,8.70
2017-10-23T16:21:20.781Z,8.60
2017-10-23T16:23:47.105Z,8.60
2017-10-23T16:26:13.468Z,8.60
2017-10-23T16:28:40.524Z,8.50
2017-10-23T16:31:06.860Z,8.50
2017-10-23T16:33:33.214Z,8.50
2017-10-23T16:35:59.568Z,8.50
2017-10-23T16:38:25.886Z,8.50
2017-10-23T16:40:52.263Z,8.50
2017-10-23T16:43:19.309Z,8.40
2017-10-23T16:45:46.484Z,8.40
2017-10-23T16:48:12.828Z,8.30
2017-10-23T16:50:39.213Z,8.40
2017-10-23T16:53:06.332Z,8.30
2017-10-23T16:55:32.771Z,8.40
2017-10-23T16:57:59.085Z,8.30
2017-10-23T17:00:25.413Z,8.40
2017-10-23T17:02:51.730Z,8.40
2017-10-23T17:05:18.089Z,8.30
2017-10-23T17:07:44.424Z,8.30
2017-10-23T17:10:10.748Z,8.30
2017-10-23T17:12:37.070Z,8.30
2017-10-23T17:15:03.404Z,8.30
2017-10-23T17:17:30.440Z,8.30
2017-10-23T17:19:56.767Z,8.30
2017-10-23T17:22:23.133Z,8.30
2017-10-23T17:24:49.465Z,8.30
2017-10-23T17:27:15.808Z,8.30
2017-10-23T17:29:42.337Z,8.30
2017-10-23T17:32:08.729Z,8.30
2017-10-23T17:34:35.789Z,8.30
2017-10-23T17:37:02.885Z,8.30
2017-10-23T17:39:29.216Z,8.30
2017-10-23T17:41:55.562Z,8.30
2017-10-23T17:44:21.860Z,8.30
2017-10-23T17:46:48.234Z,8.30
2017-10-23T17:49:14.552Z,8.40
2017-10-23T17:51:41.179Z,8.40
2017-10-23T17:54:07.796Z,8.40
2017-10-23T17:56:34.186Z,8.40
2017-10-23T17:59:01.564Z,8.40
2017-10-23T18:01:27.983Z,8.40
2017-10-23T18:03:54.451Z,8.40
2017-10-23T18:06:20.782Z,8.40
2017-10-23T18:08:47.188Z,8.40
2017-10-23T18:11:13.543Z,8.30
2017-10-23T18:13:39.948Z,8.40
2017-10-23T18:16:06.315Z,8.40
2017-10-23T18:18:32.643Z,8.40
2017-10-23T18:20:58.995Z,8.40
2017-10-23T18:23:25.350Z,8.40
2017-10-23T18:25:52.480Z,8.40
2017-10-23T18:28:18.907Z,8.40
2017-10-23T18:30:46.039Z,8.40
2017-10-23T18:33:12.376Z,8.40
2017-10-23T18:35:38.806Z,8.40
2017-10-23T18:38:05.196Z,8.40
2017-10-23T18:40:31.602Z,8.40
2017-10-23T18:42:58.027Z,8.40
2017-10-23T18:45:24.335Z,8.40
2017-10-23T18:47:51.483Z,8.40
2017-10-23T18:50:18.625Z,8.40
2017-10-23T18:52:45.869Z,8.40
2017-10-23T18:55:12.375Z,8.30
2017-10-23T18:57:38.787Z,8.30
2017-10-23T19:00:05.218Z,8.30
2017-10-23T19:02:31.610Z,8.30
2017-10-23T19:04:58.777Z,8.30
2017-10-23T19:07:25.180Z,8.20
2017-10-23T19:09:51.620Z,8.30
2017-10-23T19:12:18.774Z,8.30
2017-10-23T19:14:46.059Z,8.30
2017-10-23T19:17:12.821Z,8.30
2017-10-23T19:19:39.220Z,8.20
2017-10-23T19:22:05.612Z,8.30
2017-10-23T19:24:32.009Z,8.20
2017-10-23T19:26:58.418Z,8.30
2017-10-23T19:29:24.935Z,8.20
2017-10-23T19:31:51.619Z,8.30
2017-10-23T19:34:17.997Z,8.20
2017-10-23T19:36:44.366Z,8.30
2017-10-23T19:39:10.734Z,8.30
2017-10-23T19:41:37.924Z,8.30
2017-10-23T19:44:04.475Z,8.30
2017-10-23T19:46:30.881Z,8.30
2017-10-23T19:48:57.318Z,8.30
2017-10-23T19:51:23.708Z,8.30
2017-10-23T19:53:50.920Z,8.30
2017-10-23T19:56:17.304Z,8.30
2017-10-23T19:58:43.664Z,8.30
2017-10-23T20:01:10.014Z,8.30
2017-10-23T20:03:36.468Z,8.30
2017-10-23T20:06:02.889Z,8.30
2017-10-23T20:08:29.268Z,8.30
2017-10-23T20:10:55.614Z,8.30
2017-10-23T20:13:21.982Z,8.30
2017-10-23T20:15:48.288Z,8.30
2017-10-23T20:18:14.597Z,8.30
2017-10-23T20:20:40.940Z,8.30
2017-10-23T20:23:07.336Z,8.30
2017-10-23T20:25:33.718Z,8.30
2017-10-23T20:28:00.200Z,8.20
2017-10-23T20:30:26.508Z,8.20
2017-10-23T20:32:53.575Z,8.20
2017-10-23T20:35:19.892Z,8.20
2017-10-23T20:37:46.210Z,8.20
2017-10-23T20:40:13.307Z,8.20
2017-10-23T20:42:39.643Z,8.10
2017-10-23T20:45:06.063Z,8.10
2017-10-23T20:47:32.401Z,8.10
2017-10-23T20:49:58.642Z,8.10
2017-10-23T20:52:24.943Z,8.10
2017-10-23T20:54:51.679Z,8.20
2017-10-23T20:57:18.010Z,8.20
2017-10-23T20:59:44.326Z,8.10
2017-10-23T21:02:10.676Z,8.20
2017-10-23T21:04:37.015Z,8.10
2017-10-23T21:07:03.343Z,8.20
2017-10-23T21:09:29.686Z,8.20
2017-10-23T21:11:56.050Z,8.20
2017-10-23T21:14:23.101Z,8.20
2017-10-23T21:16:50.155Z,8.10
2017-10-23T21:19:16.517Z,8.10
2017-10-23T21:21:42.878Z,8.20
2017-10-23T21:24:09.232Z,8.10
2017-10-23T21:26:36.277Z,8.10
2017-10-23T21:29:03.332Z,8.10
2017-10-23T21:31:29.654Z,8.10
2017-10-23T21:33:56.733Z,8.10
2017-10-23T21:36:23.034Z,8.10
2017-10-23T21:38:49.345Z,8.10
2017-10-23T21:41:16.435Z,8.20
2017-10-23T21:43:42.729Z,8.10
2017-10-23T21:46:09.814Z,8.20
2017-10-23T21:48:36.126Z,8.10
2017-10-23T21:51:02.413Z,8.20
2017-10-23T21:53:29.066Z,8.20
2017-10-23T21:55:56.086Z,8.10
2017-10-23T21:58:22.420Z,8.10
2017-10-23T22:00:48.767Z,8.10
2017-10-23T22:03:15.813Z,8.10
2017-10-23T22:05:42.928Z,8.10
2017-10-23T22:08:09.231Z,8.10
2017-10-23T22:10:35.561Z,8.10
2017-10-23T22:13:01.863Z,8.10
2017-10-23T22:15:28.148Z,8.10
2017-10-23T22:17:54.380Z,8.10
2017-10-23T22:20:20.670Z,8.20
2017-10-23T22:22:46.985Z,8.10
2017-10-23T22:25:13.265Z,8.10
2017-10-23T22:27:39.579Z,8.10
2017-10-23T22:30:05.866Z,8.20
2017-10-23T22:32:32.181Z,8.10
2017-10-23T22:34:58.498Z,8.10
2017-10-23T22:37:25.523Z,8.10
2017-10-23T22:39:51.836Z,8.10
2017-10-23T22:42:18.148Z,8.10
2017-10-23T22:44:44.460Z,8.10
2017-10-23T22:47:10.750Z,8.10
2017-10-23T22:49:37.034Z,8.10
2017-10-23T22:52:03.343Z,8.10
2017-10-23T22:54:30.435Z,8.10
2017-10-23T22:56:56.728Z,8.10
2017-10-23T22:59:23.044Z,8.10
2017-10-23T23:01:49.349Z,8.10
2017-10-23T23:04:16.370Z,8.10
2017-10-23T23:06:42.715Z,8.10
2017-10-23T23:09:09.798Z,8.10
2017-10-23T23:11:36.115Z,8.10
2017-10-23T23:14:02.425Z,8.10
2017-10-23T23:16:29.077Z,8.10
2017-10-23T23:18:55.350Z,8.10
2017-10-23T23:21:21.644Z,8.10
2017-10-23T23:23:47.980Z,8.10
2017-10-23T23:26:14.290Z,8.10
2017-10-23T23:28:40.605Z,8.10
2017-10-23T23:31:07.578Z,8.10
2017-10-23T23:33:33.883Z,8.10
2017-10-23T23:36:00.945Z,8.10
2017-10-23T23:38:27.270Z,8.10
2017-10-23T23:40:53.586Z,8.20
2017-10-23T23:43:19.867Z,8.10
2017-10-23T23:45:46.169Z,8.20
2017-10-23T23:48:12.443Z,8.20
2017-10-23T23:50:38.745Z,8.20
2017-10-23T23:53:05.021Z,8.20
2017-10-23T23:55:32.103Z,8.20
2017-10-23T23:57:58.414Z,8.20
